Time;durP1;ratioP1;P1;durP2;ratioP2;P2;SDS_P1;SDS_P2;PMS_P1;PMS_P2;Temp;Humidity;BMP_temperature;BMP_pressure;BME280_temperature;BME280_humidity;BME280_pressure;Samples;Min_cycle;Max_cycle;Signal;HPM_P1;HPM_P2
2024/02/10 00:00:25;;;;;;;9.52;4.88;;;;;;;4.64;68.15;93965.38;4999512;28;20092;-71
2024/02/10 00:02:51;;;;;;;9.75;5.05;;;;;;;4.54;68.29;93964.44;5025870;28;20026;-71
2024/02/10 00:05:17;;;;;;;10.13;5.45;;;;;;;4.78;67.94;93972.09;5030513;28;20025;-73
2024/02/10 00:07:45;;;;;;;16.98;8.13;;;;;;;4.77;67.04;93949.88;4978621;28;20034;-73
2024/02/10 00:10:14;;;;;;;9.18;5.65;;;;;;;4.65;66.94;93949.03;4995664;28;20034;-72
2024/02/10 00:12:40;;;;;;;10.82;4.95;;;;;;;4.57;67.73;93951.34;5001126;28;20484;-72
2024/02/10 00:15:07;;;;;;;8.98;5.07;;;;;;;4.57;67.64;93955.63;5027529;28;20048;-72
2024/02/10 00:17:32;;;;;;;12.63;5.68;;;;;;;4.67;67.70;93961.75;5001136;28;20034;-72
2024/02/10 00:19:59;;;;;;;10.50;5.70;;;;;;;4.51;67.88;93956.09;5007936;28;20411;-72
2024/02/10 00:22:25;;;;;;;7.63;5.43;;;;;;;4.48;67.69;93960.56;4997813;28;20083;-72
2024/02/10 00:24:51;;;;;;;9.95;5.97;;;;;;;4.18;68.52;93965.28;5013005;28;20034;-72
2024/02/10 00:27:17;;;;;;;11.07;6.75;;;;;;;4.17;68.60;93976.53;4993220;28;20061;-72
2024/02/10 00:29:45;;;;;;;16.45;8.40;;;;;;;4.15;69.12;93978.38;4998701;28;20025;-71
2024/02/10 00:32:11;;;;;;;9.15;5.38;;;;;;;4.37;68.82;93970.75;5005831;28;20046;-72
2024/02/10 00:34:39;;;;;;;8.02;4.90;;;;;;;4.19;68.97;93969.53;4998148;28;20022;-72
2024/02/10 00:37:06;;;;;;;8.95;4.93;;;;;;;4.03;69.11;93965.44;4995003;28;20045;-72
2024/02/10 00:39:31;;;;;;;8.55;5.88;;;;;;;4.16;69.43;93992.88;5000044;28;20116;-72
2024/02/10 00:41:56;;;;;;;12.63;7.90;;;;;;;4.23;69.80;93999.22;5028121;28;20041;-72
2024/02/10 00:44:23;;;;;;;12.43;8.25;;;;;;;4.33;69.50;93995.06;5016455;28;20026;-72
2024/02/10 00:46:48;;;;;;;15.73;8.75;;;;;;;4.19;69.78;93992.66;4994718;28;20053;-72
2024/02/10 00:49:14;;;;;;;11.02;7.60;;;;;;;4.20;69.80;93989.16;4994008;28;20468;-72
2024/02/10 00:51:39;;;;;;;14.20;8.23;;;;;;;4.01;69.63;93939.06;5025323;28;20452;-72
2024/02/10 00:54:05;;;;;;;14.77;8.02;;;;;;;4.27;69.79;93974.13;4995294;28;20026;-72
2024/02/10 00:56:30;;;;;;;9.20;6.75;;;;;;;4.40;69.28;93970.56;5013720;28;20416;-72
2024/02/10 00:58:55;;;;;;;12.30;7.60;;;;;;;4.16;69.60;93973.13;5020336;28;20542;-72
2024/02/10 01:01:22;;;;;;;14.80;7.70;;;;;;;4.20;70.02;93979.69;5013735;28;20033;-72
2024/02/10 01:03:48;;;;;;;10.90;7.20;;;;;;;4.39;69.31;93984.34;5016960;28;20037;-72
2024/02/10 01:06:15;;;;;;;12.98;7.22;;;;;;;4.41;69.01;93972.19;5015896;28;20034;-72
2024/02/10 01:08:46;;;;;;;13.57;7.78;;;;;;;4.43;68.64;93969.50;5020080;28;20033;-72
2024/02/10 01:11:13;;;;;;;12.85;8.45;;;;;;;4.35;68.80;93982.94;5009884;28;20508;-72
2024/02/10 01:13:42;;;;;;;14.95;8.45;;;;;;;4.45;68.81;93972.78;4993952;28;20041;-72
2024/02/10 01:16:09;;;;;;;14.82;8.70;;;;;;;4.35;69.09;93962.34;4998107;28;20044;-72
2024/02/10 01:18:36;;;;;;;13.23;8.13;;;;;;;4.50;68.30;93957.03;5013240;28;20411;-72
2024/02/10 01:21:03;;;;;;;12.73;7.55;;;;;;;4.40;67.60;93942.28;5029029;28;20022;-72
2024/02/10 01:23:28;;;;;;;9.68;6.50;;;;;;;4.07;68.31;93930.09;5031117;28;20419;-72
2024/02/10 01:25:54;;;;;;;11.25;6.68;;;;;;;4.22;68.87;93944.41;5030299;28;20029;-72
2024/02/10 01:28:21;;;;;;;8.55;6.22;;;;;;;4.12;68.73;93937.47;5030544;28;20025;-72
2024/02/10 01:30:51;;;;;;;8.77;5.68;;;;;;;3.92;69.98;93934.56;5024054;28;20476;-72
2024/02/10 01:33:17;;;;;;;11.77;6.05;;;;;;;3.73;70.68;93924.78;5021354;28;20060;-72
2024/02/10 01:35:43;;;;;;;10.10;5.78;;;;;;;4.21;69.70;93941.97;5013383;28;20056;-72
2024/02/10 01:38:09;;;;;;;9.38;6.30;;;;;;;4.05;69.05;93943.97;5019772;28;20026;-72
2024/02/10 01:40:34;;;;;;;8.02;5.65;;;;;;;3.84;69.24;93936.84;4995841;28;20030;-72
2024/02/10 01:43:05;;;;;;;9.18;6.38;;;;;;;3.97;69.16;93929.91;5028614;28;20032;-72
2024/02/10 01:45:30;;;;;;;9.07;5.57;;;;;;;4.14;68.84;93939.00;5030633;28;20030;-72
2024/02/10 01:47:57;;;;;;;8.98;4.95;;;;;;;3.90;68.80;93921.00;5030466;28;20033;-72
2024/02/10 01:50:23;;;;;;;7.38;4.90;;;;;;;3.62;70.28;93924.69;4994479;28;20087;-72
2024/02/10 01:52:48;;;;;;;8.18;4.93;;;;;;;3.71;70.97;93926.63;5025547;28;20029;-72
2024/02/10 01:55:14;;;;;;;8.77;4.60;;;;;;;3.98;70.56;93941.84;5018711;28;20034;-72
2024/02/10 01:57:39;;;;;;;9.13;4.82;;;;;;;3.71;70.31;93942.03;5005005;28;20156;-72
2024/02/10 02:00:06;;;;;;;9.35;4.60;;;;;;;3.97;70.15;93957.38;4998938;28;20034;-72
2024/02/10 02:02:32;;;;;;;8.07;4.57;;;;;;;3.62;70.64;93954.69;5012957;28;20508;-72
2024/02/10 02:04:59;;;;;;;8.98;4.97;;;;;;;3.62;70.73;93947.78;5012788;28;20072;-72
2024/02/10 02:07:25;;;;;;;9.10;5.55;;;;;;;3.35;71.85;93963.38;4995851;28;20043;-72
2024/02/10 02:09:50;;;;;;;9.40;6.10;;;;;;;3.52;71.68;93965.59;5008703;28;20443;-72
2024/02/10 02:12:16;;;;;;;15.10;7.13;;;;;;;3.42;72.14;93945.78;4985689;28;20026;-72
2024/02/10 02:14:41;;;;;;;14.48;6.55;;;;;;;3.28;72.85;93928.75;4998181;28;20026;-72
2024/02/10 02:17:09;;;;;;;9.48;6.50;;;;;;;3.32;73.03;93909.66;5000614;28;20030;-72
2024/02/10 02:19:40;;;;;;;11.65;6.55;;;;;;;3.34;72.88;93912.94;4995526;28;20754;-72
2024/02/10 02:22:08;;;;;;;8.55;4.82;;;;;;;3.33;72.86;93906.16;5030462;28;20030;-72
2024/02/10 02:24:34;;;;;;;9.70;5.57;;;;;;;3.38;72.26;93896.41;4992651;28;20042;-72
2024/02/10 02:26:59;;;;;;;10.30;5.43;;;;;;;3.53;71.96;93908.16;4995613;28;20518;-72
2024/02/10 02:29:25;;;;;;;8.07;5.15;;;;;;;3.37;71.64;93897.31;5012199;28;20037;-72
2024/02/10 02:31:53;;;;;;;9.90;5.90;;;;;;;3.21;73.61;93886.47;5012803;28;20030;-72
2024/02/10 02:34:20;;;;;;;9.23;5.75;;;;;;;3.14;73.67;93889.44;4996815;28;20065;-72
2024/02/10 02:36:46;;;;;;;8.82;6.20;;;;;;;3.38;72.82;93873.28;4989138;28;20051;-72
2024/02/10 02:39:11;;;;;;;11.40;8.13;;;;;;;3.40;72.91;93881.72;4991212;28;20030;-72
2024/02/10 02:41:37;;;;;;;10.77;6.63;;;;;;;3.19;73.68;93896.03;4986633;28;20043;-72
2024/02/10 02:44:05;;;;;;;9.73;6.50;;;;;;;3.31;73.21;93898.56;4973534;28;20534;-72
2024/02/10 02:46:30;;;;;;;11.35;7.28;;;;;;;3.45;73.19;93910.44;4973998;28;20114;-72
2024/02/10 02:48:56;;;;;;;11.18;7.65;;;;;;;3.23;72.76;93870.06;4957674;28;20473;-72
2024/02/10 02:51:21;;;;;;;10.13;6.57;;;;;;;3.54;71.88;93914.97;4973916;28;20034;-72
2024/02/10 02:53:51;;;;;;;8.10;5.82;;;;;;;3.57;71.37;93926.78;4973848;28;20035;-72
2024/02/10 02:56:18;;;;;;;9.63;5.82;;;;;;;3.40;72.32;93917.66;4973737;28;20037;-72
2024/02/10 02:58:52;;;;;;;9.15;5.90;;;;;;;3.47;72.41;93936.84;4993279;28;20046;-72
2024/02/10 03:01:18;;;;;;;11.05;5.90;;;;;;;3.27;71.57;93909.16;4967257;28;20049;-72
2024/02/10 03:03:46;;;;;;;10.13;6.40;;;;;;;3.35;72.82;93946.22;4990742;28;20030;-72
2024/02/10 03:06:12;;;;;;;11.95;6.53;;;;;;;3.41;73.24;93970.66;4993924;28;20038;-72
2024/02/10 03:08:37;;;;;;;8.68;5.53;;;;;;;3.64;72.45;93966.50;4994218;28;20097;-72
2024/02/10 03:11:05;;;;;;;8.52;5.68;;;;;;;3.51;72.63;93951.13;4992507;28;20460;-73
2024/02/10 03:13:30;;;;;;;10.43;5.93;;;;;;;3.34;73.19;93957.41;4982773;28;20126;-72
2024/02/10 03:15:55;;;;;;;9.45;5.53;;;;;;;3.48;72.57;93950.50;4975083;28;20043;-72
2024/02/10 03:18:21;;;;;;;9.63;5.78;;;;;;;3.44;73.58;93941.38;4986172;28;20038;-72
2024/02/10 03:20:47;;;;;;;8.85;6.03;;;;;;;3.42;73.18;93925.25;4980822;28;20030;-72
2024/02/10 03:23:13;;;;;;;10.90;5.97;;;;;;;3.41;73.65;93914.16;4991220;28;20128;-72
2024/02/10 03:25:42;;;;;;;10.95;6.45;;;;;;;3.44;73.87;93905.44;4975625;28;20505;-72
2024/02/10 03:28:07;;;;;;;13.80;7.18;;;;;;;3.60;72.36;93912.91;4972333;28;20038;-72
2024/02/10 03:30:33;;;;;;;13.32;6.75;;;;;;;3.67;72.08;93908.94;4984953;28;20037;-72
2024/02/10 03:33:01;;;;;;;10.57;7.07;;;;;;;3.47;72.48;93906.03;4992051;28;20033;-73
2024/02/10 03:35:27;;;;;;;10.10;6.50;;;;;;;3.37;72.93;93887.03;4972979;28;20051;-72
2024/02/10 03:37:52;;;;;;;10.00;6.07;;;;;;;3.57;73.53;93894.19;4974967;28;20097;-72
2024/02/10 03:40:18;;;;;;;8.38;5.43;;;;;;;4.06;72.69;93909.63;4978908;28;20054;-73
2024/02/10 03:42:43;;;;;;;11.25;7.30;;;;;;;3.97;72.34;93922.19;4989469;28;20042;-72
2024/02/10 03:45:10;;;;;;;19.58;10.63;;;;;;;3.83;72.29;93934.41;4972934;28;20031;-72
2024/02/10 03:47:37;;;;;;;16.23;9.90;;;;;;;3.70;72.49;93939.56;4974157;28;20390;-72
2024/02/10 03:50:02;;;;;;;12.05;8.07;;;;;;;3.90;72.22;93949.28;4974758;28;20035;-72
2024/02/10 03:52:30;;;;;;;13.50;9.02;;;;;;;3.90;72.22;93939.00;4972960;28;20398;-72
2024/02/10 03:54:58;;;;;;;15.55;9.20;;;;;;;3.98;72.23;93948.72;4991587;28;20057;-73
2024/02/10 03:57:23;;;;;;;15.30;8.07;;;;;;;4.28;71.52;93980.91;4991112;28;20034;-72
2024/02/10 03:59:49;;;;;;;14.25;8.73;;;;;;;4.42;71.15;93973.00;4989629;28;20026;-72
2024/02/10 04:02:18;;;;;;;13.57;8.25;;;;;;;3.99;71.39;93935.78;4973728;28;20084;-72
2024/02/10 04:04:43;;;;;;;12.80;7.75;;;;;;;3.97;72.12;93973.59;4973883;28;20054;-72
2024/02/10 04:07:12;;;;;;;13.77;7.95;;;;;;;4.12;71.97;93981.16;4984357;28;20031;-72
2024/02/10 04:09:37;;;;;;;12.82;8.18;;;;;;;4.15;71.84;93965.50;4983813;28;20034;-72
2024/02/10 04:12:03;;;;;;;14.77;7.63;;;;;;;4.17;71.32;93953.38;4972680;28;20055;-72
2024/02/10 04:14:29;;;;;;;10.95;6.78;;;;;;;4.01;71.86;93962.19;4972392;28;20155;-72
2024/02/10 04:16:54;;;;;;;12.10;7.18;;;;;;;4.30;71.85;93990.16;4963916;28;20038;-72
2024/02/10 04:19:19;;;;;;;12.82;8.00;;;;;;;4.32;71.41;93983.16;4991276;28;20033;-72
2024/02/10 04:21:50;;;;;;;11.68;7.53;;;;;;;4.42;71.24;93952.44;4988070;28;20035;-72
2024/02/10 04:24:17;;;;;;;12.57;7.05;;;;;;;4.44;70.72;93946.25;4985654;28;20043;-72
2024/02/10 04:26:43;;;;;;;11.32;6.97;;;;;;;4.59;70.28;93939.16;4981117;28;20413;-72
2024/02/10 04:29:08;;;;;;;10.95;6.47;;;;;;;4.58;70.87;93945.25;4979122;28;20039;-72
2024/02/10 04:31:39;;;;;;;12.48;6.93;;;;;;;4.79;70.26;93919.72;4973229;28;20046;-72
2024/02/10 04:34:05;;;;;;;13.10;7.15;;;;;;;4.82;70.36;93906.63;4975637;28;20043;-72
2024/02/10 04:36:31;;;;;;;11.32;6.85;;;;;;;4.96;69.76;93910.72;5026149;28;20058;-72
2024/02/10 04:38:57;;;;;;;9.73;6.10;;;;;;;4.95;70.08;93905.69;5013540;28;20033;-72
2024/02/10 04:41:22;;;;;;;11.15;6.22;;;;;;;5.11;68.58;93883.81;5014116;28;20041;-72
2024/02/10 04:43:47;;;;;;;9.48;6.00;;;;;;;5.02;69.06;93884.53;5025843;28;20408;-72
2024/02/10 04:46:16;;;;;;;10.50;6.85;;;;;;;5.06;69.20;93890.25;5003621;28;20038;-72
2024/02/10 04:48:43;;;;;;;9.65;5.60;;;;;;;5.18;69.06;93880.75;5029696;28;20017;-72
2024/02/10 04:51:08;;;;;;;8.85;6.03;;;;;;;5.26;68.93;93888.72;5019515;28;20037;-71
2024/02/10 04:53:33;;;;;;;10.75;5.95;;;;;;;5.40;68.84;93888.47;5001267;28;20474;-72
2024/02/10 04:55:59;;;;;;;10.75;6.35;;;;;;;5.64;68.22;93883.19;4993729;28;20072;-72
2024/02/10 04:58:24;;;;;;;10.38;6.30;;;;;;;5.70;67.70;93887.03;4995747;28;20037;-72
2024/02/10 05:00:49;;;;;;;9.35;5.78;;;;;;;5.33;68.01;93866.72;5026584;28;20143;-72
2024/02/10 05:03:15;;;;;;;10.57;6.10;;;;;;;5.50;67.73;93894.56;5025086;28;20095;-72
2024/02/10 05:05:40;;;;;;;10.10;6.45;;;;;;;5.72;67.47;93904.03;5029559;28;20025;-72
2024/02/10 05:08:12;;;;;;;11.52;6.18;;;;;;;5.50;67.47;93912.59;5029380;28;20041;-72
2024/02/10 05:10:38;;;;;;;14.30;7.57;;;;;;;4.98;68.77;93892.56;5002627;28;20029;-73
2024/02/10 05:13:04;;;;;;;13.30;7.47;;;;;;;4.94;69.19;93904.88;5011944;28;20041;-72
2024/02/10 05:15:31;;;;;;;16.25;8.10;;;;;;;5.01;68.92;93924.03;4996547;28;20026;-72
2024/02/10 05:17:57;;;;;;;13.73;8.00;;;;;;;5.05;69.01;93919.50;5012464;28;20032;-71
2024/02/10 05:20:24;;;;;;;12.10;6.32;;;;;;;4.81;68.14;93874.06;5031192;28;20037;-71
2024/02/10 05:22:50;;;;;;;10.23;6.10;;;;;;;5.01;67.71;93920.66;5007711;28;20396;-71
2024/02/10 05:25:21;;;;;;;9.10;5.63;;;;;;;4.82;68.26;93924.63;4993402;28;20031;-71
2024/02/10 05:27:50;;;;;;;12.63;7.13;;;;;;;4.64;68.66;93924.22;5012185;28;20030;-72
2024/02/10 05:30:20;;;;;;;12.63;7.15;;;;;;;4.74;68.68;93947.53;4997421;28;20021;-72
2024/02/10 05:32:52;;;;;;;16.07;9.23;;;;;;;4.67;69.63;93943.75;4975497;28;20034;-71
2024/02/10 05:35:18;;;;;;;14.77;8.45;;;;;;;4.64;69.73;93933.69;5002107;28;20416;-71
2024/02/10 05:37:47;;;;;;;12.60;8.18;;;;;;;4.58;70.17;93932.38;4978946;28;20043;-72
2024/02/10 05:40:32;;;;;;;11.55;7.65;;;;;;;4.70;69.77;93940.94;4989132;28;20038;-71
2024/02/10 05:42:58;;;;;;;11.43;6.88;;;;;;;4.62;69.77;93933.78;4976531;28;20093;-72
2024/02/10 05:45:24;;;;;;;12.50;7.72;;;;;;;4.59;70.10;93964.06;4987769;28;20027;-72
2024/02/10 05:47:50;;;;;;;12.20;6.85;;;;;;;4.60;70.30;93940.00;4989648;28;20475;-71
2024/02/10 05:50:19;;;;;;;12.05;7.10;;;;;;;4.56;69.83;93959.16;4985570;28;20049;-71
2024/02/10 05:52:45;;;;;;;11.70;8.10;;;;;;;4.48;70.48;93955.41;4980067;28;20038;-72
2024/02/10 05:55:26;;;;;;;14.93;11.57;;;;;;;4.44;70.44;93966.00;4983769;28;20408;-71
2024/02/10 05:58:06;;;;;;;12.90;7.93;;;;;;;4.51;70.45;93966.38;4988800;28;20038;-72
2024/02/10 06:00:32;;;;;;;12.30;7.40;;;;;;;4.52;70.44;93963.72;4986594;28;20035;-71
2024/02/10 06:02:57;;;;;;;12.10;7.53;;;;;;;4.57;70.32;93947.91;4982232;28;20382;-71
2024/02/10 06:05:23;;;;;;;13.80;8.13;;;;;;;4.45;70.53;93958.16;4989280;28;20034;-72
2024/02/10 06:07:48;;;;;;;14.07;8.13;;;;;;;4.39;70.79;93948.34;4988068;28;20500;-72
2024/02/10 06:10:14;;;;;;;11.57;7.80;;;;;;;4.56;70.54;93943.72;4978715;28;20033;-71
2024/02/10 06:12:40;;;;;;;13.23;7.30;;;;;;;4.52;70.78;93957.75;4968495;28;20149;-71
2024/02/10 06:15:09;;;;;;;14.18;8.40;;;;;;;4.60;70.81;93970.88;4957492;28;20046;-72
2024/02/10 06:17:36;;;;;;;17.88;8.43;;;;;;;4.62;70.95;93963.84;4990582;28;20030;-71
2024/02/10 06:20:14;;;;;;;10.35;7.13;;;;;;;4.77;70.55;93960.16;4991687;28;20030;-71
2024/02/10 06:22:47;;;;;;;16.95;8.55;;;;;;;4.59;70.50;93946.06;4976059;28;20040;-72
2024/02/10 06:25:25;;;;;;;12.43;7.95;;;;;;;4.67;70.64;93957.44;4986529;28;20070;-71
2024/02/10 06:27:59;;;;;;;11.52;7.53;;;;;;;4.53;70.89;93967.09;4962162;28;20035;-71
2024/02/10 06:30:28;;;;;;;13.55;9.43;;;;;;;4.84;70.91;93989.66;4988270;28;20374;-72
2024/02/10 06:32:56;;;;;;;13.15;8.25;;;;;;;4.95;70.30;93964.88;4991683;28;20313;-71
2024/02/10 06:35:22;;;;;;;13.20;7.78;;;;;;;4.89;70.30;93966.97;4991244;28;20050;-72
2024/02/10 06:37:49;;;;;;;11.93;7.53;;;;;;;5.08;69.59;93963.03;4992824;28;20085;-71
2024/02/10 06:40:15;;;;;;;12.80;8.75;;;;;;;5.33;69.13;93967.16;4986971;28;20030;-72
2024/02/10 06:42:42;;;;;;;15.27;8.52;;;;;;;5.41;68.80;93962.25;4983949;28;20406;-72
2024/02/10 06:45:13;;;;;;;14.15;7.75;;;;;;;5.35;69.46;93984.16;4973514;28;20536;-72
2024/02/10 06:47:40;;;;;;;12.13;7.68;;;;;;;5.46;69.23;93979.91;4973621;28;20026;-71
2024/02/10 06:50:06;;;;;;;14.77;9.65;;;;;;;5.56;68.79;93976.53;4994545;28;20473;-71
2024/02/10 06:52:34;;;;;;;16.35;9.25;;;;;;;5.55;68.10;93999.84;4986269;28;20031;-72
2024/02/10 06:55:00;;;;;;;16.33;8.75;;;;;;;5.57;68.77;93990.22;4974970;28;20031;-72
2024/02/10 06:57:27;;;;;;;13.40;8.05;;;;;;;5.96;67.87;93988.13;4989022;28;20045;-72
2024/02/10 06:59:52;;;;;;;12.50;8.50;;;;;;;6.10;67.21;93985.31;4993886;28;20113;-71
2024/02/10 07:02:19;;;;;;;17.33;9.45;;;;;;;6.28;66.97;93995.13;4990116;28;20093;-71
2024/02/10 07:04:53;;;;;;;20.50;12.48;;;;;;;6.40;65.92;93994.97;4991351;28;20108;-71
2024/02/10 07:07:23;;;;;;;25.75;14.07;;;;;;;6.37;66.80;93982.31;4972996;28;20066;-71
2024/02/10 07:09:49;;;;;;;25.42;14.80;;;;;;;6.58;66.27;93999.63;4984053;28;20097;-71
2024/02/10 07:12:14;;;;;;;98.55;43.80;;;;;;;6.52;66.68;93995.75;4986567;28;20038;-71
2024/02/10 07:14:44;;;;;;;23.33;16.10;;;;;;;6.93;64.63;93991.59;4992282;28;20031;-71
2024/02/10 07:17:09;;;;;;;23.85;14.43;;;;;;;7.00;64.54;94000.50;4986515;28;20045;-72
2024/02/10 07:19:36;;;;;;;25.50;14.60;;;;;;;7.15;64.99;93977.75;4992493;28;20030;-71
2024/02/10 07:22:02;;;;;;;35.65;17.63;;;;;;;7.44;63.20;93977.91;4990505;28;20085;-71
2024/02/10 07:24:27;;;;;;;27.23;16.27;;;;;;;7.82;62.09;93986.78;4964872;28;20078;-71
2024/02/10 07:26:56;;;;;;;41.85;22.33;;;;;;;8.20;61.87;93970.56;4986267;28;20420;-72
2024/02/10 07:29:24;;;;;;;31.90;18.05;;;;;;;7.96;61.62;93952.78;4992702;28;20034;-71
2024/02/10 07:31:50;;;;;;;25.52;13.82;;;;;;;8.43;60.44;93963.41;4982138;28;20125;-72
2024/02/10 07:34:17;;;;;;;21.95;12.40;;;;;;;8.96;59.04;93980.31;4988704;28;20739;-72
2024/02/10 07:36:43;;;;;;;34.25;18.05;;;;;;;9.13;58.37;93976.22;5029417;28;20104;-72
2024/02/10 07:39:09;;;;;;;20.70;10.15;;;;;;;9.39;57.85;93964.31;5007130;28;20046;-72
2024/02/10 07:41:38;;;;;;;17.27;9.63;;;;;;;9.64;57.43;93975.03;5010656;28;20021;-71
2024/02/10 07:44:06;;;;;;;17.27;11.02;;;;;;;10.47;55.77;93969.84;4979826;28;20429;-73
2024/02/10 07:46:34;;;;;;;21.30;11.27;;;;;;;11.03;53.25;93965.31;5025629;28;20025;-74
2024/02/10 07:49:03;;;;;;;17.55;10.73;;;;;;;11.28;52.11;93959.34;5014776;28;20029;-71
2024/02/10 07:51:30;;;;;;;18.15;12.68;;;;;;;12.40;50.08;93961.06;4999124;28;20040;-70
2024/02/10 07:53:58;;;;;;;16.90;9.52;;;;;;;12.52;48.62;93951.16;5026674;28;20036;-73
2024/02/10 07:56:24;;;;;;;16.20;9.52;;;;;;;12.20;48.43;93944.06;5026939;28;20499;-72
2024/02/10 07:58:49;;;;;;;16.42;10.73;;;;;;;12.11;49.85;93956.22;5029316;28;20025;-71
2024/02/10 08:01:17;;;;;;;16.15;10.43;;;;;;;12.13;49.79;93954.31;5030363;28;20028;-74
2024/02/10 08:03:44;;;;;;;17.08;9.73;;;;;;;11.36;51.81;93966.38;5027879;28;20028;-72
2024/02/10 08:06:09;;;;;;;14.55;9.02;;;;;;;11.16;51.67;93963.97;5028088;28;20030;-73
2024/02/10 08:08:35;;;;;;;14.93;8.85;;;;;;;10.94;52.62;93964.44;5015601;28;20048;-73
2024/02/10 08:11:00;;;;;;;15.70;8.35;;;;;;;11.05;52.05;93977.19;5029082;28;20408;-74
2024/02/10 08:13:27;;;;;;;13.25;8.02;;;;;;;10.65;52.82;93949.09;5011786;28;20037;-73
2024/02/10 08:15:54;;;;;;;15.45;7.88;;;;;;;10.56;53.29;93952.56;5032237;28;20483;-73
2024/02/10 08:18:21;;;;;;;11.93;7.55;;;;;;;10.45;54.28;93935.44;5007789;28;20025;-75
2024/02/10 08:20:47;;;;;;;12.05;7.15;;;;;;;10.28;54.66;93924.88;4998797;28;20044;-72
2024/02/10 08:23:14;;;;;;;12.32;7.95;;;;;;;10.09;55.19;93956.13;5008827;28;20358;-71
2024/02/10 08:25:40;;;;;;;11.70;7.55;;;;;;;10.00;55.59;93951.78;5010072;28;20028;-72
2024/02/10 08:28:06;;;;;;;13.40;7.53;;;;;;;10.06;54.71;93951.22;5011138;28;20033;-73
2024/02/10 08:30:32;;;;;;;16.55;8.82;;;;;;;9.96;54.88;93950.44;5031014;28;20037;-71
2024/02/10 08:32:58;;;;;;;14.70;7.82;;;;;;;10.06;55.45;93966.78;5008766;28;20036;-72
2024/02/10 08:35:24;;;;;;;10.10;7.30;;;;;;;10.02;55.65;93965.44;4992889;28;20192;-69
2024/02/10 08:37:50;;;;;;;10.32;6.85;;;;;;;9.99;54.33;93955.34;5001332;28;20515;-70
2024/02/10 08:40:15;;;;;;;14.93;7.80;;;;;;;9.82;54.32;93952.53;4993085;28;20038;-71
2024/02/10 08:42:41;;;;;;;10.80;8.10;;;;;;;9.95;54.29;93966.97;5026694;28;20029;-70
2024/02/10 08:45:09;;;;;;;13.73;7.45;;;;;;;9.80;54.03;93958.84;5026168;28;20037;-70
2024/02/10 08:47:34;;;;;;;13.13;8.13;;;;;;;9.91;53.90;93963.84;4992144;28;20392;-70
2024/02/10 08:50:01;;;;;;;13.38;8.48;;;;;;;9.87;53.87;93972.06;4996410;28;20048;-70
2024/02/10 08:52:28;;;;;;;13.52;7.25;;;;;;;10.03;53.98;93972.28;4990581;28;20123;-71
2024/02/10 08:54:56;;;;;;;18.17;7.20;;;;;;;10.36;53.44;93994.22;4995008;28;20052;-70
2024/02/10 08:57:23;;;;;;;13.68;7.20;;;;;;;10.28;53.41;94000.16;4996387;28;20038;-71
2024/02/10 08:59:51;;;;;;;12.27;7.90;;;;;;;10.13;52.95;94006.75;5027116;28;20029;-70
2024/02/10 09:02:22;;;;;;;17.33;8.90;;;;;;;10.21;52.58;94006.03;5025314;28;20045;-73
2024/02/10 09:04:49;;;;;;;10.93;6.75;;;;;;;10.54;52.47;94006.44;4998267;28;20033;-72
2024/02/10 09:07:18;;;;;;;16.85;8.85;;;;;;;10.37;52.29;94008.84;5009997;28;20026;-71
2024/02/10 09:09:45;;;;;;;11.18;7.13;;;;;;;10.45;51.84;93995.16;5010509;28;20037;-74
2024/02/10 09:12:12;;;;;;;18.40;9.73;;;;;;;10.46;51.63;93986.41;4990605;28;20044;-73
2024/02/10 09:14:38;;;;;;;26.35;12.75;;;;;;;10.07;53.13;93996.94;5012075;28;20026;-74
2024/02/10 09:17:03;;;;;;;24.95;12.70;;;;;;;10.15;53.00;93991.88;5012291;28;20029;-73
2024/02/10 09:19:29;;;;;;;16.77;9.20;;;;;;;10.01;53.03;93990.56;4993681;28;20743;-73
2024/02/10 09:21:54;;;;;;;26.65;12.52;;;;;;;10.09;52.88;93997.63;4976837;28;20104;-74
2024/02/10 09:24:22;;;;;;;21.15;11.07;;;;;;;9.97;53.00;93975.41;4976897;28;20045;-73
2024/02/10 09:26:48;;;;;;;11.85;7.97;;;;;;;10.16;52.56;93971.91;5011310;28;20030;-74
2024/02/10 09:29:14;;;;;;;16.83;7.88;;;;;;;10.22;52.63;93955.75;4993368;28;20034;-73
2024/02/10 09:31:44;;;;;;;14.70;7.53;;;;;;;10.56;52.06;93983.72;4991678;28;20030;-73
2024/02/10 09:34:11;;;;;;;11.33;6.90;;;;;;;10.72;51.74;93979.50;5009223;28;20033;-73
2024/02/10 09:36:36;;;;;;;9.10;6.03;;;;;;;10.70;51.19;93976.25;5008644;28;20062;-73
2024/02/10 09:39:03;;;;;;;10.85;6.00;;;;;;;10.76;51.61;93989.63;4991388;28;20471;-73
2024/02/10 09:41:29;;;;;;;10.45;5.80;;;;;;;10.55;52.10;93966.50;4991807;28;20088;-73
2024/02/10 09:43:54;;;;;;;12.23;6.47;;;;;;;10.47;51.61;93964.66;4991750;28;20030;-73
2024/02/10 09:46:19;;;;;;;13.95;9.15;;;;;;;10.58;52.04;93950.63;5011055;28;20113;-74
2024/02/10 09:48:50;;;;;;;10.00;6.75;;;;;;;10.84;50.35;93940.34;4993555;28;20029;-73
2024/02/10 09:51:16;;;;;;;8.43;5.50;;;;;;;11.05;49.92;93948.59;4993698;28;20034;-73
2024/02/10 09:53:41;;;;;;;5.95;3.45;;;;;;;11.21;44.21;93934.13;5010556;28;20034;-73
2024/02/10 09:56:12;;;;;;;13.88;7.00;;;;;;;11.41;49.02;93954.56;4993577;28;20447;-74
2024/02/10 09:58:40;;;;;;;13.10;7.35;;;;;;;11.24;49.97;93947.63;4994420;28;20041;-73
2024/02/10 10:01:06;;;;;;;10.68;5.38;;;;;;;11.52;46.74;93950.06;4993652;28;20034;-73
2024/02/10 10:03:32;;;;;;;11.50;5.40;;;;;;;11.43;46.82;93951.81;4993988;28;20021;-73
2024/02/10 10:06:00;;;;;;;5.20;2.10;;;;;;;12.04;38.50;93961.25;4977442;28;20029;-73
2024/02/10 10:08:25;;;;;;;5.10;2.83;;;;;;;12.42;38.16;93950.47;5011141;28;20033;-73
2024/02/10 10:10:51;;;;;;;6.93;1.85;;;;;;;12.48;37.23;93922.00;5011448;28;20045;-73
2024/02/10 10:13:17;;;;;;;6.07;1.55;;;;;;;12.63;37.41;93924.00;4993458;28;20037;-73
2024/02/10 10:15:42;;;;;;;6.20;1.85;;;;;;;12.88;35.72;93933.44;5011131;28;20030;-74
2024/02/10 10:18:19;;;;;;;2.80;1.70;;;;;;;12.92;36.12;93911.28;4993281;28;20037;-73
2024/02/10 10:20:45;;;;;;;4.15;1.60;;;;;;;13.13;34.75;93889.13;5011793;28;20469;-74
2024/02/10 10:23:13;;;;;;;7.60;1.52;;;;;;;13.12;35.15;93911.78;4977308;28;20034;-73
2024/02/10 10:25:38;;;;;;;13.13;7.75;;;;;;;13.25;37.23;93915.69;4993452;28;20095;-74
2024/02/10 10:28:04;;;;;;;32.13;14.10;;;;;;;13.32;39.09;93912.28;4993348;28;20033;-73
2024/02/10 10:30:30;;;;;;;21.40;12.05;;;;;;;13.40;39.97;93917.50;4993682;28;20105;-74
2024/02/10 10:32:57;;;;;;;25.48;17.58;;;;;;;13.32;40.15;93901.84;4977297;28;20029;-74
2024/02/10 10:35:23;;;;;;;15.77;11.68;;;;;;;13.67;39.99;93925.09;4993427;28;20054;-73
2024/02/10 10:37:50;;;;;;;13.98;12.10;;;;;;;13.55;39.99;93922.03;4993330;28;20477;-74
2024/02/10 10:40:15;;;;;;;18.10;7.38;;;;;;;13.47;40.75;93925.44;4977438;28;20089;-73
2024/02/10 10:42:41;;;;;;;18.13;11.43;;;;;;;13.41;41.56;93918.28;4977292;28;20452;-74
2024/02/10 10:45:08;;;;;;;17.73;10.50;;;;;;;13.28;41.80;93924.00;4961022;28;20038;-74
2024/02/10 10:47:39;;;;;;;11.93;8.82;;;;;;;13.12;41.47;93913.56;4993454;28;20435;-74
2024/02/10 10:50:05;;;;;;;20.90;16.33;;;;;;;13.33;42.41;93931.34;4977824;28;20096;-73
2024/02/10 10:52:31;;;;;;;28.77;19.90;;;;;;;13.08;41.57;93907.06;5010475;28;20108;-73
2024/02/10 10:54:57;;;;;;;166.80;91.00;;;;;;;12.88;38.37;93911.78;4977085;28;20045;-73
2024/02/10 10:57:24;;;;;;;57.90;40.80;;;;;;;12.99;38.53;93932.31;4977028;28;20034;-73
2024/02/10 11:00:18;;;;;;;9.35;5.78;;;;;;;13.05;37.01;93923.03;4993114;28;20030;-73
2024/02/10 11:02:44;;;;;;;7.13;3.10;;;;;;;13.09;35.45;93919.09;4996116;28;20076;-74
2024/02/10 11:05:12;;;;;;;4.50;1.92;;;;;;;13.28;34.06;93908.34;4993863;28;20061;-73
2024/02/10 11:07:38;;;;;;;3.75;1.90;;;;;;;13.40;33.77;93914.88;4997295;28;20076;-73
2024/02/10 11:10:05;;;;;;;8.85;5.72;;;;;;;13.44;34.08;93886.66;4996773;28;20034;-73
2024/02/10 11:12:35;;;;;;;6.45;4.20;;;;;;;13.58;34.46;93909.44;4980730;28;20033;-73
2024/02/10 11:15:01;;;;;;;8.13;2.55;;;;;;;13.73;33.31;93916.56;4997458;28;20037;-74
2024/02/10 11:17:34;;;;;;;4.03;1.55;;;;;;;13.88;33.12;93903.66;5014013;28;20506;-73
2024/02/10 11:20:08;;;;;;;7.07;3.20;;;;;;;14.01;34.61;93915.19;5014034;28;20038;-73
2024/02/10 11:22:45;;;;;;;5.43;2.35;;;;;;;14.04;33.13;93898.34;4996311;28;20141;-73
2024/02/10 11:25:14;;;;;;;6.32;3.63;;;;;;;14.07;32.52;93885.78;5014192;28;20404;-73
2024/02/10 11:27:43;;;;;;;7.25;2.90;;;;;;;14.14;32.68;93883.28;5013781;28;20029;-73
2024/02/10 11:30:08;;;;;;;8.50;3.05;;;;;;;14.13;31.41;93892.13;4980246;28;20045;-74